Suring, Wisconsin
Current Conditions -  °F | °C
As of 7:35 PM on Saturday 25 Oct 2014 (Local Time) from KEZS Reporting Station
Clear Clear  
Wind Chill: 55°   Ceiling: Unl
Heat Index: 55°   Visibility: 10mi
Dew Point: 27°   Wind: 5mph
Humidity: 33%   Direction: 270°W
Pressure: 29.89"   Gusts: NA
Location:  45°N, 88.37°W
Report Text: KEZS 260035Z AUTO 27004KT 10SM CLR 13/M03 A2989 RMK AO2 T01291030
Loading
Personal Weather Stations






























Interactive Weather Map
Tropical Storm Tracking
New forecast layout! Learn more

10-Day Weather Forecast

Advertisements
Track Severe Weather on mobile